createdAt,value
2018-12-03T00:01:32.782Z,95197.95
2018-12-03T00:04:20.919Z,95189.56
2018-12-03T00:06:50.458Z,95196.73
2018-12-03T00:09:19.868Z,95195.44
2018-12-03T00:11:48.721Z,95195.31
2018-12-03T00:14:17.678Z,95203.88
2018-12-03T00:16:46.584Z,95202.48
2018-12-03T00:19:15.566Z,95203.17
2018-12-03T00:21:44.428Z,95206.17
2018-12-03T00:24:13.389Z,95206.52
2018-12-03T00:26:42.238Z,95209.33
2018-12-03T00:29:11.053Z,95202.28
2018-12-03T00:31:39.952Z,95200.05
2018-12-03T00:34:08.775Z,95201.47
2018-12-03T00:36:37.674Z,95204.73
2018-12-03T00:39:08.310Z,95206.22
2018-12-03T00:41:37.349Z,95209.63
2018-12-03T00:44:06.454Z,95207.04
2018-12-03T00:46:35.271Z,95199.30
2018-12-03T00:49:04.076Z,95199.78
2018-12-03T00:51:32.971Z,95202.06
2018-12-03T00:54:01.783Z,95198.94
2018-12-03T00:56:30.578Z,95201.36
2018-12-03T00:58:59.357Z,95194.09
2018-12-03T01:01:32.235Z,95197.15
2018-12-03T01:04:01.119Z,95192.52
2018-12-03T01:06:29.975Z,95193.45
2018-12-03T01:08:58.885Z,95185.08
2018-12-03T01:11:27.652Z,95186.36
2018-12-03T01:13:56.470Z,95179.57
2018-12-03T01:16:25.332Z,95170.95
2018-12-03T01:18:54.078Z,95173.38
2018-12-03T01:21:22.872Z,95159.81
2018-12-03T01:23:51.781Z,95159.59
2018-12-03T01:26:20.623Z,95148.86
2018-12-03T01:28:49.473Z,95151.09
2018-12-03T01:31:18.424Z,95152.63
2018-12-03T01:33:47.213Z,95147.99
2018-12-03T01:36:16.002Z,95152.80
2018-12-03T01:38:44.825Z,95143.72
2018-12-03T01:41:13.707Z,95148.88
2018-12-03T01:43:42.536Z,95147.36
2018-12-03T01:46:11.441Z,95143.84
2018-12-03T01:48:40.226Z,95146.59
2018-12-03T01:51:09.139Z,95150.92
2018-12-03T01:53:37.883Z,95147.30
2018-12-03T01:56:06.743Z,95150.64
2018-12-03T01:58:35.641Z,95139.28
2018-12-03T02:01:04.425Z,95139.52
2018-12-03T02:03:33.233Z,95137.98
2018-12-03T02:06:02.100Z,95133.53
2018-12-03T02:08:30.927Z,95129.67
2018-12-03T02:10:59.761Z,95132.41
2018-12-03T02:13:28.591Z,95124.34
2018-12-03T02:15:57.387Z,95122.05
2018-12-03T02:18:26.285Z,95122.17
2018-12-03T02:20:55.114Z,95117.91
2018-12-03T02:23:23.972Z,95114.09
2018-12-03T02:25:52.783Z,95123.88
2018-12-03T02:28:21.596Z,95119.42
2018-12-03T02:30:50.442Z,95120.96
2018-12-03T02:33:19.424Z,95121.93
2018-12-03T02:35:48.243Z,95118.48
2018-12-03T02:38:17.114Z,95111.83
2018-12-03T02:40:46.004Z,95107.06
2018-12-03T02:43:14.817Z,95106.90
2018-12-03T02:45:43.614Z,95114.05
2018-12-03T02:48:12.404Z,95113.45
2018-12-03T02:50:41.224Z,95105.32
2018-12-03T02:53:10.060Z,95101.03
2018-12-03T02:55:38.973Z,95098.53
2018-12-03T02:58:07.864Z,95097.30
2018-12-03T03:00:40.147Z,95094.73
2018-12-03T03:03:08.956Z,95094.06
2018-12-03T03:05:37.760Z,95098.75
2018-12-03T03:08:07.046Z,95099.11
2018-12-03T03:10:35.881Z,95093.49
2018-12-03T03:13:04.759Z,95093.72
2018-12-03T03:15:33.567Z,95092.20
2018-12-03T03:18:02.415Z,95093.89
2018-12-03T03:20:31.332Z,95095.89
2018-12-03T03:23:00.143Z,95098.30
2018-12-03T03:25:28.933Z,95102.14
2018-12-03T03:27:57.747Z,95101.64
2018-12-03T03:30:26.595Z,95104.38
2018-12-03T03:32:55.395Z,95112.62
2018-12-03T03:35:24.310Z,95115.60
2018-12-03T03:37:53.125Z,95116.65
2018-12-03T03:40:21.946Z,95117.36
2018-12-03T03:42:50.816Z,95122.31
2018-12-03T03:45:22.868Z,95124.23
2018-12-03T03:47:51.790Z,95127.00
2018-12-03T03:50:20.661Z,95129.92
2018-12-03T03:52:49.922Z,95125.91
2018-12-03T03:55:18.777Z,95130.73
2018-12-03T03:57:47.748Z,95130.39
2018-12-03T04:00:17.102Z,95123.84
2018-12-03T04:02:46.012Z,95126.38
2018-12-03T04:05:15.793Z,95125.59
2018-12-03T04:07:46.428Z,95121.73
2018-12-03T04:10:16.031Z,95122.40
2018-12-03T04:12:45.892Z,95130.36
2018-12-03T04:15:15.705Z,95131.29
2018-12-03T04:17:44.997Z,95125.79
2018-12-03T04:20:15.006Z,95123.22
2018-12-03T04:22:44.798Z,95128.56
2018-12-03T04:25:13.939Z,95129.97
2018-12-03T04:27:42.741Z,95127.86
2018-12-03T04:30:16.576Z,95127.62
2018-12-03T04:32:45.378Z,95131.80
2018-12-03T04:35:14.679Z,95130.75
2018-12-03T04:37:44.247Z,95135.11
2018-12-03T04:40:15.363Z,95138.39
2018-12-03T04:42:44.234Z,95139.75
2018-12-03T04:45:15.197Z,95142.05
2018-12-03T04:47:44.039Z,95136.78
2018-12-03T04:50:14.200Z,95139.20
2018-12-03T04:52:43.029Z,95137.33
2018-12-03T04:55:12.245Z,95133.59
2018-12-03T04:57:41.088Z,95128.36
2018-12-03T05:00:14.893Z,95131.75
2018-12-03T05:02:44.237Z,95131.95
2018-12-03T05:05:13.068Z,95130.30
2018-12-03T05:07:42.023Z,95117.94
2018-12-03T05:10:16.790Z,95115.44
2018-12-03T05:12:46.792Z,95114.73
2018-12-03T05:15:15.764Z,95116.79
2018-12-03T05:17:45.110Z,95120.53
2018-12-03T05:20:17.279Z,95118.55
2018-12-03T05:22:46.093Z,95116.14
2018-12-03T05:25:19.152Z,95125.19
2018-12-03T05:27:43.732Z,95128.70
2018-12-03T05:30:14.003Z,95118.13
2018-12-03T05:32:43.434Z,95117.73
2018-12-03T05:35:14.630Z,95124.64
2018-12-03T05:37:43.439Z,95124.29
2018-12-03T05:40:17.526Z,95124.87
2018-12-03T05:42:46.482Z,95127.67
2018-12-03T05:45:15.396Z,95116.20
2018-12-03T05:47:44.239Z,95122.45
2018-12-03T05:50:15.352Z,95123.74
2018-12-03T05:52:45.184Z,95135.40
2018-12-03T05:55:14.475Z,95139.42
2018-12-03T05:57:43.730Z,95129.79
2018-12-03T06:00:16.912Z,95128.02
2018-12-03T06:02:45.716Z,95133.88
2018-12-03T06:05:15.232Z,95127.40
2018-12-03T06:07:44.084Z,95121.13
2018-12-03T06:10:15.428Z,95121.30
2018-12-03T06:12:44.329Z,95120.53
2018-12-03T06:15:14.151Z,95110.30
2018-12-03T06:17:42.989Z,95119.61
2018-12-03T06:20:14.012Z,95113.39
2018-12-03T06:22:43.307Z,95119.14
2018-12-03T06:25:17.463Z,95110.40
2018-12-03T06:27:46.360Z,95111.81
2018-12-03T06:30:20.962Z,95110.77
2018-12-03T06:32:49.926Z,95109.34
2018-12-03T06:35:19.127Z,95113.03
2018-12-03T06:37:48.283Z,95112.91
2018-12-03T06:40:27.105Z,95111.35
2018-12-03T06:42:55.894Z,95113.09
2018-12-03T06:45:25.388Z,95120.48
2018-12-03T06:47:57.081Z,95122.41
2018-12-03T06:50:25.936Z,95120.93
2018-12-03T06:52:54.840Z,95115.84
2018-12-03T06:55:24.345Z,95116.27
2018-12-03T06:57:53.164Z,95121.48
2018-12-03T07:00:23.212Z,95118.84
2018-12-03T07:02:52.198Z,95115.50
2018-12-03T07:05:21.005Z,95121.08
2018-12-03T07:07:51.278Z,95116.14
2018-12-03T07:10:21.154Z,95112.62
2018-12-03T07:12:54.163Z,95123.28
2018-12-03T07:15:23.376Z,95114.39
2018-12-03T07:17:58.189Z,95118.25
2018-12-03T07:20:27.875Z,95124.45
2018-12-03T07:22:57.711Z,95122.22
2018-12-03T07:25:26.532Z,95115.90
2018-12-03T07:27:55.311Z,95115.86
2018-12-03T07:30:25.605Z,95111.94
2018-12-03T07:32:55.132Z,95119.89
2018-12-03T07:35:26.136Z,95119.47
2018-12-03T07:37:56.779Z,95117.76
2018-12-03T07:40:26.334Z,95119.86
2018-12-03T07:42:55.645Z,95119.22
2018-12-03T07:45:30.266Z,95117.37
2018-12-03T07:47:59.257Z,95117.56
2018-12-03T07:50:28.484Z,95120.02
2018-12-03T07:52:59.158Z,95129.79
2018-12-03T07:55:28.019Z,95126.08
2018-12-03T07:57:59.562Z,95129.30
2018-12-03T08:00:37.126Z,95133.73
2018-12-03T08:03:07.047Z,95132.28
2018-12-03T08:05:36.573Z,95132.00
2018-12-03T08:08:05.746Z,95126.84
2018-12-03T08:10:34.818Z,95125.58
2018-12-03T08:13:03.640Z,95121.59
2018-12-03T08:15:32.503Z,95113.41
2018-12-03T08:18:03.807Z,95112.21
2018-12-03T08:20:39.235Z,95108.91
2018-12-03T08:23:14.820Z,95109.35
2018-12-03T08:25:43.621Z,95116.05
2018-12-03T08:28:12.624Z,95116.20
2018-12-03T08:30:41.531Z,95105.19
2018-12-03T08:33:10.321Z,95109.08
2018-12-03T08:35:39.197Z,95113.70
2018-12-03T08:38:08.054Z,95113.50
2018-12-03T08:40:36.905Z,95117.13
2018-12-03T08:43:05.919Z,95113.87
2018-12-03T08:45:34.797Z,95113.19
2018-12-03T08:48:03.657Z,95110.27
2018-12-03T08:50:32.511Z,95107.29
2018-12-03T08:53:01.357Z,95106.95
2018-12-03T08:55:30.229Z,95098.93
2018-12-03T08:57:59.089Z,95102.52
2018-12-03T09:00:29.385Z,95099.75
2018-12-03T09:03:06.062Z,95093.81
2018-12-03T09:05:36.973Z,95084.63
2018-12-03T09:08:07.212Z,95077.11
2018-12-03T09:10:36.136Z,95076.87
2018-12-03T09:13:14.308Z,95072.50
2018-12-03T09:15:43.372Z,95073.41
2018-12-03T09:18:12.176Z,95067.80
2018-12-03T09:20:41.026Z,95077.67
2018-12-03T09:23:09.879Z,95068.72
2018-12-03T09:25:38.771Z,95064.34
2018-12-03T09:28:07.953Z,95060.94
2018-12-03T09:30:36.713Z,95057.88
2018-12-03T09:33:05.767Z,95054.47
2018-12-03T09:35:34.623Z,95057.66
2018-12-03T09:38:03.399Z,95052.05
2018-12-03T09:40:32.285Z,95046.58
2018-12-03T09:43:01.119Z,95040.96
2018-12-03T09:45:30.729Z,95036.95
2018-12-03T09:47:59.522Z,95033.44
2018-12-03T09:50:29.210Z,95029.05
2018-12-03T09:52:58.262Z,95029.02
2018-12-03T09:55:30.624Z,95021.58
2018-12-03T09:58:08.431Z,95019.08
2018-12-03T10:00:37.462Z,95018.20
2018-12-03T10:03:09.458Z,95023.16
2018-12-03T10:05:40.865Z,95016.71
2018-12-03T10:08:09.650Z,95015.75
2018-12-03T10:10:38.435Z,95018.27
2018-12-03T10:13:08.900Z,95016.99
2018-12-03T10:15:37.660Z,95015.55
2018-12-03T10:18:06.695Z,95017.38
2018-12-03T10:20:35.505Z,95008.87
2018-12-03T10:23:04.340Z,95005.81
2018-12-03T10:25:33.161Z,95003.37
2018-12-03T10:28:04.812Z,95005.19
2018-12-03T10:30:33.634Z,95006.63
2018-12-03T10:33:02.508Z,95004.52
2018-12-03T10:35:35.906Z,95005.73
2018-12-03T10:38:14.216Z,95009.83
2018-12-03T10:40:46.325Z,95003.84
2018-12-03T10:43:15.189Z,95001.81
2018-12-03T10:45:44.012Z,94995.54
2018-12-03T10:48:12.808Z,95000.91
2018-12-03T10:50:42.066Z,94996.73
2018-12-03T10:53:10.941Z,94991.17
2018-12-03T10:55:42.788Z,94989.94
2018-12-03T10:58:14.826Z,94989.03
2018-12-03T11:00:49.122Z,94981.29
2018-12-03T11:03:23.304Z,94982.83
2018-12-03T11:05:57.516Z,94978.66
2018-12-03T11:08:26.923Z,94977.38
2018-12-03T11:10:56.644Z,94975.17
2018-12-03T11:13:25.511Z,94969.75
2018-12-03T11:15:54.341Z,94957.13
2018-12-03T11:18:23.247Z,94959.92
2018-12-03T11:20:52.074Z,94959.68
2018-12-03T11:23:24.319Z,94962.06
2018-12-03T11:25:53.429Z,94955.46
2018-12-03T11:28:22.388Z,94947.05
2018-12-03T11:30:54.805Z,94951.37
2018-12-03T11:33:25.298Z,94938.88
2018-12-03T11:35:56.111Z,94934.50
2018-12-03T11:38:30.579Z,94931.87
2018-12-03T11:40:59.494Z,94927.48
2018-12-03T11:43:29.703Z,94926.67
2018-12-03T11:45:59.153Z,94927.36
2018-12-03T11:48:28.059Z,94932.06
2018-12-03T11:50:56.954Z,94927.42
2018-12-03T11:53:25.795Z,94927.22
2018-12-03T11:55:54.717Z,94919.30
2018-12-03T11:58:23.525Z,94920.97
2018-12-03T12:00:52.611Z,94923.06
2018-12-03T12:03:21.500Z,94918.01
2018-12-03T12:05:50.361Z,94926.78
2018-12-03T12:08:20.348Z,94915.89
2018-12-03T12:10:48.177Z,94920.53
2018-12-03T12:13:16.992Z,94912.41
2018-12-03T12:15:45.778Z,94910.45
2018-12-03T12:18:15.300Z,94909.13
2018-12-03T12:20:44.136Z,94907.98
2018-12-03T12:23:12.962Z,94910.39
2018-12-03T12:25:41.718Z,94904.66
2018-12-03T12:28:10.501Z,94899.50
2018-12-03T12:30:39.385Z,94895.61
2018-12-03T12:33:08.299Z,94896.42
2018-12-03T12:35:37.143Z,94891.24
2018-12-03T12:38:06.832Z,94892.84
2018-12-03T12:40:35.674Z,94887.77
2018-12-03T12:43:04.659Z,94890.81
2018-12-03T12:45:41.083Z,94894.10
2018-12-03T12:48:10.271Z,94890.21
2018-12-03T12:50:39.101Z,94892.06
2018-12-03T12:53:07.985Z,94889.44
2018-12-03T12:55:36.807Z,94886.41
2018-12-03T12:58:06.232Z,94882.62
2018-12-03T13:00:35.147Z,94887.73
2018-12-03T13:03:04.073Z,94891.08
2018-12-03T13:05:33.516Z,94891.84
2018-12-03T13:08:02.462Z,94903.16
2018-12-03T13:10:31.332Z,94900.56
2018-12-03T13:13:00.123Z,94895.53
2018-12-03T13:15:28.994Z,94904.92
2018-12-03T13:17:57.828Z,94900.66
2018-12-03T13:20:26.664Z,94900.08
2018-12-03T13:22:55.428Z,94892.61
2018-12-03T13:25:24.298Z,94883.89
2018-12-03T13:27:54.275Z,94886.19
2018-12-03T13:30:23.114Z,94877.84
2018-12-03T13:32:51.973Z,94882.88
2018-12-03T13:35:20.790Z,94874.59
2018-12-03T13:37:50.048Z,94873.58
2018-12-03T13:40:18.903Z,94869.11
2018-12-03T13:42:48.169Z,94870.87
2018-12-03T13:45:20.203Z,94871.98
2018-12-03T13:47:49.583Z,94870.14
2018-12-03T13:50:18.584Z,94873.48
2018-12-03T13:52:47.447Z,94869.28
2018-12-03T13:55:17.784Z,94867.23
2018-12-03T13:57:47.166Z,94871.11
2018-12-03T14:00:19.765Z,94867.08
2018-12-03T14:02:52.465Z,94867.17
2018-12-03T14:06:30.373Z,94877.05
2018-12-03T14:10:04.321Z,94875.88
2018-12-03T14:12:36.159Z,94871.75
2018-12-03T14:15:15.831Z,94876.69
2018-12-03T14:17:49.985Z,94870.44
2018-12-03T14:20:20.023Z,94870.10
2018-12-03T14:22:52.029Z,94866.56
2018-12-03T14:25:20.835Z,94870.22
2018-12-03T14:27:50.428Z,94863.03
2018-12-03T14:30:19.270Z,94864.30
2018-12-03T14:32:48.116Z,94858.94
2018-12-03T14:35:16.932Z,94859.19
2018-12-03T14:37:45.947Z,94863.97
2018-12-03T14:40:14.737Z,94867.91
2018-12-03T14:42:43.603Z,94866.55
2018-12-03T14:45:13.793Z,94862.93
2018-12-03T14:47:42.545Z,94858.04
2018-12-03T14:50:11.747Z,94857.95
2018-12-03T14:52:40.439Z,94864.02
2018-12-03T14:55:09.930Z,94866.81
2018-12-03T14:57:38.647Z,94861.30
2018-12-03T15:00:13.286Z,94858.69
2018-12-03T15:02:42.076Z,94863.05
2018-12-03T15:05:10.900Z,94870.06
2018-12-03T15:07:39.691Z,94864.19
2018-12-03T15:10:10.120Z,94874.43
2018-12-03T15:12:38.959Z,94872.73
2018-12-03T15:15:10.446Z,94873.28
2018-12-03T15:17:40.791Z,94876.34
2018-12-03T15:20:10.057Z,94879.02
2018-12-03T15:22:38.967Z,94885.41
2018-12-03T15:25:10.432Z,94884.27
2018-12-03T15:27:39.210Z,94876.14
2018-12-03T15:30:11.200Z,94878.14
2018-12-03T15:32:39.936Z,94879.16
2018-12-03T15:35:10.293Z,94880.63
2018-12-03T15:37:39.112Z,94878.52
2018-12-03T15:40:16.440Z,94888.03
2018-12-03T15:42:45.203Z,94886.29
2018-12-03T15:45:15.996Z,94893.05
2018-12-03T15:47:45.302Z,94886.06
2018-12-03T15:50:14.533Z,94886.19
2018-12-03T15:52:43.362Z,94883.37
2018-12-03T15:55:12.133Z,94884.08
2018-12-03T15:57:40.931Z,94877.93
2018-12-03T16:00:11.862Z,94890.25
2018-12-03T16:02:41.165Z,94888.83
2018-12-03T16:05:26.421Z,94894.46
2018-12-03T16:07:55.223Z,94894.59
2018-12-03T16:10:24.044Z,94893.52
2018-12-03T16:12:53.662Z,94899.70
2018-12-03T16:15:22.437Z,94889.87
2018-12-03T16:17:51.282Z,94894.61
2018-12-03T16:20:20.074Z,94900.59
2018-12-03T16:22:48.816Z,94901.41
2018-12-03T16:25:17.648Z,94900.66
2018-12-03T16:27:46.369Z,94904.58
2018-12-03T16:30:18.327Z,94903.11
2018-12-03T16:32:47.827Z,94897.38
2018-12-03T16:35:16.742Z,94903.97
2018-12-03T16:37:45.624Z,94905.51
2018-12-03T16:40:15.040Z,94905.38
2018-12-03T16:42:43.851Z,94908.30
2018-12-03T16:45:13.129Z,94909.45
2018-12-03T16:47:41.943Z,94911.23
2018-12-03T16:50:11.040Z,94911.90
2018-12-03T16:52:40.153Z,94917.92
2018-12-03T16:55:09.564Z,94906.64
2018-12-03T16:57:38.373Z,94908.05
2018-12-03T17:00:16.473Z,94909.13
2018-12-03T17:02:45.246Z,94911.61
2018-12-03T17:05:14.602Z,94906.21
2018-12-03T17:07:43.889Z,94911.91
2018-12-03T17:10:15.794Z,94912.48
2018-12-03T17:12:44.690Z,94917.13
2018-12-03T17:15:13.979Z,94921.00
2018-12-03T17:17:42.851Z,94913.09
2018-12-03T17:20:32.829Z,94910.59
2018-12-03T17:23:22.007Z,94909.02
2018-12-03T17:25:51.138Z,94916.72
2018-12-03T17:28:19.888Z,94921.36
2018-12-03T17:30:48.725Z,94916.94
2018-12-03T17:33:17.528Z,94914.91
2018-12-03T17:35:46.298Z,94913.14
2018-12-03T17:38:15.150Z,94915.38
2018-12-03T17:40:44.213Z,94909.41
2018-12-03T17:43:13.033Z,94922.18
2018-12-03T17:45:42.077Z,94911.98
2018-12-03T17:48:10.892Z,94909.02
2018-12-03T17:50:39.897Z,94905.33
2018-12-03T17:53:08.681Z,94902.06
2018-12-03T17:55:37.518Z,94903.22
2018-12-03T17:58:06.324Z,94899.69
2018-12-03T18:00:35.138Z,94900.57
2018-12-03T18:03:03.892Z,94896.49
2018-12-03T18:05:32.715Z,94896.56
2018-12-03T18:08:01.528Z,94890.38
2018-12-03T18:10:30.926Z,94892.69
2018-12-03T18:12:59.771Z,94889.56
2018-12-03T18:15:28.545Z,94886.03
2018-12-03T18:17:57.387Z,94888.64
2018-12-03T18:20:26.959Z,94881.81
2018-12-03T18:22:55.718Z,94881.38
2018-12-03T18:25:24.529Z,94875.26
2018-12-03T18:27:53.304Z,94879.27
2018-12-03T18:30:22.065Z,94882.62
2018-12-03T18:32:50.787Z,94871.72
2018-12-03T18:35:19.612Z,94879.06
2018-12-03T18:37:48.365Z,94878.24
2018-12-03T18:40:17.118Z,94881.50
2018-12-03T18:42:46.168Z,94882.59
2018-12-03T18:45:15.003Z,94885.36
2018-12-03T18:47:43.854Z,94885.22
2018-12-03T18:50:22.591Z,94884.81
2018-12-03T18:52:51.670Z,94884.48
2018-12-03T18:55:20.462Z,94882.71
2018-12-03T18:57:53.151Z,94883.87
2018-12-03T19:00:22.043Z,94885.77
2018-12-03T19:02:50.894Z,94887.30
2018-12-03T19:05:19.755Z,94887.30
2018-12-03T19:07:48.574Z,94883.43
2018-12-03T19:10:17.337Z,94886.94
2018-12-03T19:12:46.205Z,94891.27
2018-12-03T19:15:14.956Z,94890.78
2018-12-03T19:17:43.768Z,94891.36
2018-12-03T19:20:13.084Z,94883.81
2018-12-03T19:22:41.869Z,94890.67
2018-12-03T19:25:11.029Z,94888.06
2018-12-03T19:27:39.787Z,94890.75
2018-12-03T19:30:13.726Z,94880.63
2018-12-03T19:32:42.719Z,94886.87
2018-12-03T19:35:11.593Z,94881.09
2018-12-03T19:37:40.422Z,94877.91
2018-12-03T19:40:09.280Z,94881.28
2018-12-03T19:42:38.042Z,94877.32
2018-12-03T19:45:08.150Z,94882.95
2018-12-03T19:47:36.925Z,94888.44
2018-12-03T19:50:07.318Z,94887.01
2018-12-03T19:52:36.450Z,94882.08
2018-12-03T19:55:07.280Z,94874.98
2018-12-03T19:57:36.651Z,94872.47
2018-12-03T20:00:15.963Z,94870.50
2018-12-03T20:02:45.291Z,94866.02
2018-12-03T20:05:17.765Z,94872.81
2018-12-03T20:07:46.672Z,94873.97
2018-12-03T20:10:15.714Z,94873.35
2018-12-03T20:12:44.532Z,94867.84
2018-12-03T20:15:13.706Z,94869.08
2018-12-03T20:17:43.660Z,94867.58
2018-12-03T20:20:16.436Z,94861.88
2018-12-03T20:22:57.430Z,94858.61
2018-12-03T20:25:33.749Z,94851.14
2018-12-03T20:28:08.134Z,94856.44
2018-12-03T20:30:48.698Z,94852.42
2018-12-03T20:33:21.046Z,94849.84
2018-12-03T20:36:02.868Z,94849.70
2018-12-03T20:38:44.926Z,94836.84
2018-12-03T20:41:22.494Z,94832.73
2018-12-03T20:43:52.896Z,94838.06
2018-12-03T20:46:34.634Z,94833.30
2018-12-03T20:49:20.946Z,94843.22
2018-12-03T20:51:51.254Z,94843.56
2018-12-03T20:54:20.038Z,94836.96
2018-12-03T20:56:48.817Z,94842.26
2018-12-03T20:59:18.431Z,94841.92
2018-12-03T21:01:48.311Z,94839.81
2018-12-03T21:04:21.169Z,94842.73
2018-12-03T21:06:50.176Z,94847.01
2018-12-03T21:09:18.990Z,94856.31
2018-12-03T21:11:47.819Z,94852.14
2018-12-03T21:14:20.127Z,94844.41
2018-12-03T21:16:47.490Z,94847.55
2018-12-03T21:19:16.281Z,94848.84
2018-12-03T21:21:45.090Z,94856.18
2018-12-03T21:24:13.827Z,94856.70
2018-12-03T21:26:43.021Z,94855.17
2018-12-03T21:29:11.742Z,94854.08
2018-12-03T21:31:40.517Z,94853.39
2018-12-03T21:34:09.256Z,94851.38
2018-12-03T21:36:38.029Z,94846.83
2018-12-03T21:39:08.399Z,94850.13
2018-12-03T21:41:37.162Z,94852.03
2018-12-03T21:44:05.991Z,94854.00
2018-12-03T21:46:34.719Z,94849.66
2018-12-03T21:49:03.604Z,94847.42
2018-12-03T21:51:32.358Z,94839.68
2018-12-03T21:54:01.299Z,94842.26
2018-12-03T21:56:30.138Z,94841.92
2018-12-03T21:58:58.917Z,94846.49
2018-12-03T22:01:27.725Z,94835.11
2018-12-03T22:03:56.452Z,94833.73
2018-12-03T22:06:25.262Z,94832.34
2018-12-03T22:08:54.162Z,94827.73
2018-12-03T22:11:22.970Z,94823.34
2018-12-03T22:13:51.739Z,94816.88
2018-12-03T22:16:20.592Z,94813.66
2018-12-03T22:18:49.422Z,94814.51
2018-12-03T22:21:18.173Z,94813.55
2018-12-03T22:23:46.916Z,94815.98
2018-12-03T22:26:15.735Z,94813.96
2018-12-03T22:28:44.472Z,94817.36
2018-12-03T22:31:13.212Z,94815.37
2018-12-03T22:33:42.003Z,94807.70
2018-12-03T22:36:10.815Z,94812.39
2018-12-03T22:38:39.563Z,94805.19
2018-12-03T22:41:08.390Z,94803.36
2018-12-03T22:43:37.166Z,94799.49
2018-12-03T22:46:05.970Z,94794.94
2018-12-03T22:48:34.753Z,94792.36
2018-12-03T22:51:03.499Z,94788.89
2018-12-03T22:53:32.360Z,94785.98
2018-12-03T22:56:01.121Z,94789.28
2018-12-03T22:58:29.901Z,94784.59
2018-12-03T23:01:05.076Z,94782.11
2018-12-03T23:03:34.327Z,94781.36
2018-12-03T23:06:03.681Z,94781.80
2018-12-03T23:08:32.472Z,94776.55
2018-12-03T23:11:01.214Z,94777.47
2018-12-03T23:13:30.000Z,94778.28
2018-12-03T23:15:58.769Z,94781.23
2018-12-03T23:18:27.542Z,94774.41
2018-12-03T23:20:56.299Z,94781.13
2018-12-03T23:23:25.048Z,94774.67
2018-12-03T23:25:53.791Z,94774.08
2018-12-03T23:28:22.505Z,94778.13
2018-12-03T23:30:51.267Z,94773.27
2018-12-03T23:33:20.646Z,94777.95
2018-12-03T23:35:49.495Z,94775.41
2018-12-03T23:38:18.281Z,94773.72
2018-12-03T23:40:47.212Z,94768.02
2018-12-03T23:43:15.995Z,94767.41
2018-12-03T23:45:44.790Z,94767.78
2018-12-03T23:48:13.512Z,94768.27
2018-12-03T23:50:42.234Z,94765.21
2018-12-03T23:53:11.025Z,94763.88
2018-12-03T23:55:39.796Z,94766.05
2018-12-03T23:58:08.556Z,94771.75
